ICT,Max TemperatureF,Mean TemperatureF,Min TemperatureF,Max Dew PointF,MeanDew PointF,Min DewpointF,Max Humidity, Mean Humidity, Min Humidity, Max Sea Level PressureIn, Mean Sea Level PressureIn, Min Sea Level PressureIn, Max VisibilityMiles, Mean VisibilityMiles, Min VisibilityMiles, Max Wind SpeedMPH, Mean Wind SpeedMPH, Max Gust SpeedMPH,PrecipitationIn, CloudCover, Events, WindDirDegrees
2012-12-1,89,80,70,75,70,68,96,70,52,29.95,29.86,29.77,7,6,4,5,1,,0.00,5,,110
2012-12-2,88,80,72,74,72,70,93,77,53,29.95,29.89,29.85,7,5,3,8,2,,0.00,4,Rain-Thunderstorm,299
2012-12-3,85,78,71,73,70,68,95,75,58,29.98,29.89,29.83,7,5,2,6,2,,0.00,5,Rain,120
2012-12-4,86,78,70,73,69,66,94,69,46,29.95,29.86,29.77,7,5,0,7,2,,0.00,3,Fog,147
2012-12-5,85,77,69,70,66,61,90,67,45,29.98,29.89,29.80,7,6,4,7,2,,0.00,4,,132
2012-12-6,85,72,60,66,63,59,91,67,48,29.98,29.88,29.80,9,6,1,6,2,,0.00,1,,110
2012-12-7,83,74,61,66,63,61,96,72,45,29.98,29.90,29.80,7,5,0,5,2,,0.00,2,Fog,140
2012-12-8,82,72,60,65,62,59,92,67,42,29.98,29.89,29.80,7,5,2,6,1,,0.00,2,,125
2012-12-9,81,68,55,61,58,54,94,61,39,29.98,29.89,29.80,7,6,3,6,2,,0.00,1,,138
2012-12-10,81,69,54,66,59,55,99,64,40,30.01,29.90,29.80,7,5,0,6,2,,0.00,1,Fog,150
2012-12-11,82,70,58,64,61,59,94,68,42,30.01,29.90,29.83,7,5,0,7,2,,0.00,1,Fog,127
2012-12-12,85,73,60,66,63,61,97,70,48,30.01,29.93,29.83,7,5,1,5,1,,0.00,2,Fog,310
2012-12-13,84,72,60,68,64,61,94,69,43,30.04,29.94,29.86,7,5,0,7,2,,0.00,2,Fog,235
2012-12-14,84,74,60,65,62,57,94,63,35,30.06,30.00,29.92,7,5,0,5,2,,0.00,1,Fog,123
2012-12-15,82,70,56,63,60,55,97,66,42,30.06,29.98,29.89,7,5,0,6,1,,0.00,1,Fog,176
2012-12-16,82,70,59,64,61,57,97,66,40,30.06,29.98,29.89,7,5,0,7,2,,0.00,1,Fog,196
2012-12-17,82,68,55,63,59,55,94,67,37,30.04,29.93,29.83,7,3,0,7,2,,0.00,2,Fog,110
2012-12-18,82,72,59,65,60,57,94,65,42,30.06,29.96,29.86,7,5,0,4,1,,0.00,2,Fog,330
2012-12-19,84,72,59,70,64,59,94,72,48,30.01,29.90,29.79,7,4,0,6,1,,0.00,1,Fog,195
2012-12-20,84,74,63,67,64,63,94,68,45,29.95,29.87,29.80,7,5,2,6,2,,0.00,3,,137
2012-12-21,81,70,58,63,57,48,97,61,27,30.01,29.91,29.83,7,3,0,8,2,,0.00,2,Fog,154
2012-12-22,81,66,52,58,55,50,96,62,31,30.01,29.93,29.83,7,5,0,7,2,,0.00,1,Fog,107
2012-12-23,83,68,54,67,59,54,94,67,42,30.04,29.96,29.86,7,5,0,6,1,,0.00,1,Fog,110
2012-12-24,85,75,63,67,64,63,95,68,43,30.04,29.94,29.83,7,4,0,4,1,,0.00,2,Fog,179
2012-12-25,84,74,63,65,63,55,97,68,35,29.98,29.89,29.80,7,5,0,6,1,,0.00,2,Fog,135
2012-12-26,85,74,63,64,63,61,94,66,43,29.98,29.88,29.77,7,6,3,7,2,,0.00,3,,138
2012-12-27,85,73,61,65,61,55,96,66,33,29.98,29.88,29.77,7,4,0,7,2,,0.00,1,Fog,110
2012-12-28,85,72,58,64,61,57,97,66,38,29.95,29.86,29.77,7,5,0,7,1,,0.00,1,Fog,120
2012-12-29,84,72,59,64,60,54,94,65,33,29.98,29.89,29.80,7,5,0,8,1,,0.00,2,Fog,110
2012-12-30,85,71,57,65,60,57,94,66,40,29.98,29.87,29.77,7,4,0,6,2,,0.00,1,Fog,51
2012-12-31,86,74,61,70,64,61,97,72,46,29.95,29.85,29.74,7,4,0,5,1,,0.00,3,Fog,286